Time;durP1;ratioP1;P1;durP2;ratioP2;P2;SDS_P1;SDS_P2;PMS_P1;PMS_P2;Temp;Humidity;BMP_temperature;BMP_pressure;BME280_temperature;BME280_humidity;BME280_pressure;Samples;Min_cycle;Max_cycle;Signal;HPM_P1;HPM_P2
2021/01/09 00:04:18;;;;;;;17.55;16.15;;;;;;;0.47;74.26;100130.47;10137274;29;20052;-68
2021/01/09 00:09:19;;;;;;;17.98;16.50;;;;;;;0.50;74.44;100122.75;10136451;29;20041;-68
2021/01/09 00:14:21;;;;;;;17.48;15.98;;;;;;;0.40;74.79;100134.72;10136753;29;20138;-68
2021/01/09 00:19:22;;;;;;;17.08;15.45;;;;;;;0.50;74.22;100128.78;10137626;29;20100;-68
2021/01/09 00:24:25;;;;;;;17.52;16.08;;;;;;;0.48;74.38;100130.47;10136621;29;20048;-67
2021/01/09 00:29:26;;;;;;;17.45;15.98;;;;;;;0.41;74.68;100135.59;10138120;29;20036;-67
2021/01/09 00:34:30;;;;;;;18.73;17.13;;;;;;;0.37;74.71;100139.00;10144139;29;20099;-68
2021/01/09 00:39:32;;;;;;;19.13;17.52;;;;;;;0.20;74.78;100142.25;10143423;29;20140;-67
2021/01/09 00:44:33;;;;;;;19.35;17.75;;;;;;;0.34;74.83;100147.56;10143797;29;20044;-68
2021/01/09 00:49:34;;;;;;;18.33;16.67;;;;;;;0.40;74.52;100142.50;10143830;29;20067;-68
2021/01/09 00:54:36;;;;;;;19.25;17.60;;;;;;;0.42;73.99;100153.69;10142761;29;20081;-67
2021/01/09 00:59:38;;;;;;;18.08;16.58;;;;;;;0.47;73.47;100154.63;10142925;29;20123;-68
2021/01/09 01:04:39;;;;;;;17.45;16.05;;;;;;;0.44;73.48;100162.38;10142937;29;20068;-68
2021/01/09 01:09:40;;;;;;;18.98;17.17;;;;;;;0.51;73.08;100165.88;10142355;29;20072;-67
2021/01/09 01:14:41;;;;;;;19.48;17.77;;;;;;;0.23;74.10;100169.88;10142933;29;20056;-67
2021/01/09 01:19:42;;;;;;;19.88;17.77;;;;;;;0.27;74.13;100179.41;10139499;29;20044;-68
2021/01/09 01:24:44;;;;;;;18.83;17.23;;;;;;;0.33;73.51;100181.19;10141778;29;20078;-67
2021/01/09 01:29:45;;;;;;;17.90;16.27;;;;;;;0.48;73.17;100177.03;10141261;29;20044;-67
2021/01/09 01:34:46;;;;;;;17.60;16.15;;;;;;;0.42;73.15;100187.31;10140931;29;20127;-68
2021/01/09 01:39:47;;;;;;;19.58;17.73;;;;;;;0.41;72.92;100179.56;10141019;29;20120;-68
2021/01/09 01:44:48;;;;;;;19.13;17.35;;;;;;;0.33;73.34;100178.59;10140427;29;20495;-69
2021/01/09 01:49:51;;;;;;;18.92;17.13;;;;;;;0.40;72.69;100182.97;10140671;29;20144;-68
2021/01/09 01:54:52;;;;;;;18.02;16.42;;;;;;;0.36;72.94;100182.09;10140943;29;20136;-67
2021/01/09 01:59:53;;;;;;;18.13;16.42;;;;;;;0.21;73.46;100180.16;10141198;29;20036;-67
2021/01/09 02:05:00;;;;;;;17.42;15.77;;;;;;;0.37;72.71;100189.00;10140416;29;20140;-68
2021/01/09 02:10:02;;;;;;;16.30;14.90;;;;;;;0.34;72.97;100188.94;10140171;29;20452;-68
2021/01/09 02:15:04;;;;;;;16.50;15.00;;;;;;;0.36;72.60;100195.03;10140697;29;20049;-67
2021/01/09 02:20:08;;;;;;;16.58;15.25;;;;;;;0.43;72.49;100198.53;10139403;29;20115;-67
2021/01/09 02:25:10;;;;;;;17.13;15.55;;;;;;;0.39;72.40;100200.22;10139830;29;20048;-67
2021/01/09 02:30:15;;;;;;;18.13;16.45;;;;;;;0.10;73.32;100192.09;10137129;29;20047;-67
2021/01/09 02:35:20;;;;;;;17.88;16.25;;;;;;;0.35;72.35;100198.44;10153345;23;20051;-65
2021/01/09 02:40:21;;;;;;;18.95;17.25;;;;;;;0.23;72.61;100191.41;10178722;29;20055;-64
2021/01/09 02:45:22;;;;;;;21.05;17.45;;;;;;;0.28;72.35;100183.72;10177990;29;20122;-63
2021/01/09 02:50:24;;;;;;;18.98;17.17;;;;;;;0.29;72.05;100200.94;10179208;29;20100;-65
2021/01/09 02:55:25;;;;;;;19.20;17.52;;;;;;;0.03;72.15;100204.91;10178772;29;20099;-66
2021/01/09 03:00:27;;;;;;;16.17;14.70;;;;;;;-0.10;72.60;100203.88;10176438;29;20052;-66
2021/01/09 03:05:28;;;;;;;14.32;12.98;;;;;;;0.14;71.03;100200.78;10177399;29;20048;-64
2021/01/09 03:10:29;;;;;;;15.15;13.77;;;;;;;0.16;70.33;100204.22;10176420;29;20048;-65
2021/01/09 03:15:30;;;;;;;16.83;15.32;;;;;;;0.28;69.83;100195.78;10176664;29;20054;-67
2021/01/09 03:20:31;;;;;;;15.55;13.98;;;;;;;0.37;69.40;100201.91;10177379;29;20052;-65
2021/01/09 03:25:32;;;;;;;15.60;14.15;;;;;;;0.18;69.70;100200.84;10177003;29;20076;-64
2021/01/09 03:30:33;;;;;;;16.23;14.50;;;;;;;-0.01;71.48;100201.41;10176414;29;20116;-65
2021/01/09 03:35:36;;;;;;;16.58;14.95;;;;;;;0.22;69.95;100201.72;10175795;29;20131;-66
2021/01/09 03:40:37;;;;;;;16.83;15.32;;;;;;;0.20;70.20;100206.00;10174852;29;20468;-65
2021/01/09 03:45:39;;;;;;;15.32;13.93;;;;;;;0.32;69.45;100200.13;10176051;29;20160;-65
2021/01/09 03:50:40;;;;;;;16.08;14.68;;;;;;;0.37;69.41;100203.63;10176410;29;20064;-64
2021/01/09 03:55:41;;;;;;;14.70;13.30;;;;;;;0.38;69.39;100202.78;10176005;29;20052;-65
2021/01/09 04:00:43;;;;;;;15.60;14.00;;;;;;;0.46;68.89;100201.16;10175356;29;20040;-65
2021/01/09 04:05:44;;;;;;;14.65;13.32;;;;;;;0.42;69.17;100207.16;10180614;29;20047;-65
2021/01/09 04:10:45;;;;;;;15.85;14.32;;;;;;;0.35;69.68;100201.00;10183526;29;20052;-66
2021/01/09 04:15:46;;;;;;;16.20;14.48;;;;;;;0.27;70.01;100218.19;10183366;29;20127;-65
2021/01/09 04:20:48;;;;;;;17.70;16.05;;;;;;;0.03;71.59;100220.44;10183327;29;20040;-65
2021/01/09 04:25:50;;;;;;;19.38;17.40;;;;;;;-0.26;71.70;100223.47;10182746;29;20048;-66
2021/01/09 04:30:51;;;;;;;17.75;15.90;;;;;;;0.05;71.50;100223.91;10182287;29;20044;-65
2021/01/09 04:35:52;;;;;;;16.58;15.00;;;;;;;-0.09;72.25;100218.53;10183370;29;20099;-67
2021/01/09 04:40:55;;;;;;;19.30;17.10;;;;;;;-0.20;72.21;100226.13;10181807;29;20091;-67
2021/01/09 04:45:56;;;;;;;19.25;17.25;;;;;;;-0.01;71.93;100222.09;10181318;29;20048;-66
2021/01/09 04:50:58;;;;;;;17.63;15.93;;;;;;;0.33;70.15;100231.16;10181373;29;20490;-65
2021/01/09 04:56:00;;;;;;;18.63;16.73;;;;;;;0.24;71.08;100231.06;10181207;29;20043;-66
2021/01/09 05:01:06;;;;;;;18.00;16.27;;;;;;;0.16;71.04;100236.13;10180861;29;20100;-64
2021/01/09 05:06:07;;;;;;;20.67;16.58;;;;;;;0.20;71.30;100237.03;10180274;29;20474;-65
2021/01/09 05:11:10;;;;;;;17.85;16.17;;;;;;;0.19;71.36;100238.75;10181462;29;20067;-68
2021/01/09 05:16:12;;;;;;;20.85;17.40;;;;;;;0.29;71.21;100241.47;10180676;29;20044;-65
2021/01/09 05:21:15;;;;;;;19.45;17.65;;;;;;;0.24;70.86;100243.97;10179368;29;20054;-66
2021/01/09 05:26:17;;;;;;;20.85;18.70;;;;;;;0.09;71.47;100248.94;10180640;29;20048;-66
2021/01/09 05:31:23;;;;;;;19.05;17.05;;;;;;;-0.05;72.54;100257.34;10179763;29;20550;-65
2021/01/09 05:36:26;;;;;;;20.70;18.63;;;;;;;0.02;72.02;100260.03;10180100;29;20426;-65
2021/01/09 05:41:27;;;;;;;19.38;17.67;;;;;;;0.18;71.20;100259.44;10179630;29;20087;-65
2021/01/09 05:46:30;;;;;;;21.42;17.45;;;;;;;0.10;71.29;100269.66;10180322;29;20059;-64
2021/01/09 05:51:33;;;;;;;20.52;18.50;;;;;;;0.23;71.18;100256.03;10180018;29;20040;-64
2021/01/09 05:56:39;;;;;;;18.70;16.90;;;;;;;-0.01;72.07;100264.31;10180667;29;20045;-65
2021/01/09 06:01:43;;;;;;;19.85;17.88;;;;;;;0.13;71.92;100276.56;10179248;29;20064;-64
2021/01/09 06:06:49;;;;;;;20.02;18.13;;;;;;;0.03;71.67;100275.56;10178529;29;20161;-65
2021/01/09 06:11:55;;;;;;;18.80;16.92;;;;;;;0.10;71.37;100289.47;10181265;29;20368;-66
2021/01/09 06:16:58;;;;;;;19.33;17.38;;;;;;;-0.05;71.73;100285.78;10179152;29;20052;-64
2021/01/09 06:22:03;;;;;;;20.38;18.48;;;;;;;0.04;71.72;100285.03;10180921;29;20454;-64
2021/01/09 06:27:14;;;;;;;20.70;18.75;;;;;;;0.12;71.67;100286.03;10179041;29;20048;-65
2021/01/09 06:32:22;;;;;;;21.08;18.55;;;;;;;0.14;71.27;100286.06;10181012;29;20048;-64
2021/01/09 06:37:23;;;;;;;19.55;17.65;;;;;;;0.03;71.57;100295.38;10179901;29;20044;-65
2021/01/09 06:42:25;;;;;;;19.60;17.75;;;;;;;0.02;71.63;100291.06;10181340;29;20079;-64
2021/01/09 06:47:29;;;;;;;20.83;18.73;;;;;;;-0.13;72.23;100307.22;10181901;29;20139;-65
2021/01/09 06:52:56;;;;;;;20.38;18.48;;;;;;;-0.27;72.85;100302.69;10180745;29;20119;-65
2021/01/09 06:57:58;;;;;;;19.80;18.00;;;;;;;-0.08;72.64;100303.84;10180367;29;20067;-65
2021/01/09 07:03:16;;;;;;;19.52;17.73;;;;;;;-0.17;72.73;100314.03;10182338;29;20044;-65
2021/01/09 07:08:22;;;;;;;20.90;18.73;;;;;;;0.02;72.54;100322.94;10181074;29;20048;-65
2021/01/09 07:13:23;;;;;;;19.55;17.65;;;;;;;0.04;71.96;100326.41;10177039;29;20048;-65
2021/01/09 07:18:26;;;;;;;18.55;16.95;;;;;;;0.02;71.92;100335.00;10178206;29;20091;-64
2021/01/09 07:23:28;;;;;;;18.75;17.15;;;;;;;-0.04;72.05;100334.06;10179715;29;20044;-64
2021/01/09 07:28:36;;;;;;;18.95;17.08;;;;;;;-0.04;72.36;100336.63;10179917;29;20079;-65
2021/01/09 07:33:45;;;;;;;19.42;17.73;;;;;;;0.09;72.19;100342.88;10179103;29;20455;-63
2021/01/09 07:38:47;;;;;;;18.65;17.05;;;;;;;0.26;71.65;100358.63;10179354;29;20480;-65
2021/01/09 07:43:50;;;;;;;18.08;16.35;;;;;;;0.22;71.43;100364.59;10179615;29;20063;-65
2021/01/09 07:48:53;;;;;;;19.50;17.45;;;;;;;0.18;71.26;100358.53;10178253;29;20447;-65
2021/01/09 07:53:56;;;;;;;18.00;16.48;;;;;;;0.21;71.38;100368.88;10180001;29;20575;-65
2021/01/09 07:58:59;;;;;;;17.13;15.52;;;;;;;0.26;70.90;100376.72;10179531;29;20047;-64
2021/01/09 08:04:01;;;;;;;17.85;15.35;;;;;;;0.25;70.71;100380.16;10182026;29;20076;-69
2021/01/09 08:09:03;;;;;;;17.00;15.50;;;;;;;0.31;70.06;100389.72;10181150;29;20044;-65
2021/01/09 08:14:05;;;;;;;17.05;15.43;;;;;;;0.10;70.92;100390.28;10178035;29;20299;-65
2021/01/09 08:19:14;;;;;;;17.35;15.85;;;;;;;0.17;70.94;100384.34;10177938;29;20044;-65
2021/01/09 08:24:26;;;;;;;16.67;15.30;;;;;;;0.34;70.56;100388.03;10182757;29;20127;-65
2021/01/09 08:29:28;;;;;;;15.48;14.07;;;;;;;0.33;70.04;100390.63;10180521;29;20048;-64
2021/01/09 08:34:30;;;;;;;17.17;15.57;;;;;;;0.19;70.91;100393.88;10183562;29;20040;-66
2021/01/09 08:39:34;;;;;;;16.70;15.30;;;;;;;0.30;70.50;100399.19;10180581;29;20051;-66
2021/01/09 08:44:45;;;;;;;16.67;15.18;;;;;;;0.18;70.72;100402.47;10177687;29;20111;-66
2021/01/09 08:49:49;;;;;;;16.17;14.68;;;;;;;0.23;71.21;100406.00;10177931;29;20048;-65
2021/01/09 08:54:54;;;;;;;16.17;14.68;;;;;;;0.32;70.43;100404.41;10186603;29;20048;-65
2021/01/09 08:59:57;;;;;;;15.35;14.05;;;;;;;0.42;69.91;100416.63;10185270;29;20040;-66
2021/01/09 09:04:59;;;;;;;15.32;14.02;;;;;;;0.39;70.25;100419.16;10185746;29;20056;-66
2021/01/09 09:10:02;;;;;;;15.30;13.90;;;;;;;0.41;70.08;100423.50;10184136;29;20143;-66
2021/01/09 09:15:08;;;;;;;13.13;11.93;;;;;;;0.52;69.48;100422.78;10187322;29;20056;-66
2021/01/09 09:20:16;;;;;;;15.10;13.70;;;;;;;0.52;69.62;100425.38;10191525;29;20123;-65
2021/01/09 09:25:23;;;;;;;14.43;13.23;;;;;;;0.51;69.96;100429.69;10188418;29;20052;-65
2021/01/09 09:30:25;;;;;;;13.48;12.38;;;;;;;0.41;71.04;100423.50;10184271;29;20422;-66
2021/01/09 09:35:28;;;;;;;14.07;12.82;;;;;;;0.57;70.29;100416.84;10182270;29;20075;-65
2021/01/09 09:40:34;;;;;;;14.35;13.15;;;;;;;0.46;71.09;100416.69;10180377;29;20574;-65
2021/01/09 09:45:36;;;;;;;10.83;9.83;;;;;;;0.58;70.99;100425.50;10181493;29;20056;-65
2021/01/09 09:50:38;;;;;;;13.02;11.82;;;;;;;0.62;70.05;100425.56;10180767;29;20490;-65
2021/01/09 09:55:39;;;;;;;12.90;11.70;;;;;;;0.56;70.38;100429.75;10180997;29;20063;-64
2021/01/09 10:00:46;;;;;;;14.02;12.90;;;;;;;0.55;71.30;100430.63;10179865;29;20435;-64
2021/01/09 10:06:01;;;;;;;12.45;11.45;;;;;;;0.69;69.82;100434.28;10180062;29;20040;-65
2021/01/09 10:11:03;;;;;;;11.95;10.95;;;;;;;0.64;70.43;100429.03;10180650;29;20052;-67
2021/01/09 10:16:05;;;;;;;13.00;11.93;;;;;;;0.61;70.84;100426.38;10180235;29;20051;-65
2021/01/09 10:21:07;;;;;;;12.90;11.80;;;;;;;0.59;70.87;100419.47;10180684;29;20048;-66
2021/01/09 10:26:08;;;;;;;14.00;12.85;;;;;;;0.47;71.52;100420.16;10179674;29;20104;-65
2021/01/09 10:31:10;;;;;;;11.95;10.95;;;;;;;0.58;70.76;100409.97;10176608;29;20059;-65
2021/01/09 10:36:11;;;;;;;13.25;12.05;;;;;;;0.75;70.58;100421.41;10177192;29;20110;-67
2021/01/09 10:41:12;;;;;;;13.45;12.35;;;;;;;0.66;70.48;100414.38;10178487;29;20410;-67
2021/01/09 10:46:26;;;;;;;12.75;11.75;;;;;;;0.83;70.08;100416.34;10179027;29;20060;-65
2021/01/09 10:51:29;;;;;;;12.63;11.40;;;;;;;0.60;70.96;100421.19;10180118;29;20113;-65
2021/01/09 10:56:30;;;;;;;12.93;11.27;;;;;;;0.77;70.85;100419.72;10178774;29;20052;-66
2021/01/09 11:01:34;;;;;;;13.35;12.27;;;;;;;0.53;71.68;100414.19;10179524;29;20044;-66
2021/01/09 11:06:36;;;;;;;12.30;11.25;;;;;;;0.76;71.28;100420.59;10183211;29;20135;-67
2021/01/09 11:11:38;;;;;;;11.25;10.20;;;;;;;0.74;71.13;100423.13;10178793;29;20182;-66
2021/01/09 11:16:39;;;;;;;10.50;9.60;;;;;;;0.70;71.09;100417.88;10178444;29;20095;-67
2021/01/09 11:21:41;;;;;;;11.77;10.80;;;;;;;0.91;70.39;100420.78;10177966;29;20410;-66
2021/01/09 11:26:42;;;;;;;10.20;9.40;;;;;;;0.72;70.46;100426.56;10178415;29;20052;-66
2021/01/09 11:31:43;;;;;;;10.55;9.65;;;;;;;0.57;71.17;100429.78;10177271;29;20049;-64
2021/01/09 11:36:45;;;;;;;12.63;11.05;;;;;;;0.46;72.05;100437.38;10177878;29;20411;-65
2021/01/09 11:41:48;;;;;;;14.45;12.95;;;;;;;0.40;72.51;100432.13;10176629;29;20048;-65
2021/01/09 11:46:49;;;;;;;11.48;10.40;;;;;;;0.62;72.06;100432.44;10177685;29;20059;-64
2021/01/09 11:51:52;;;;;;;11.77;10.15;;;;;;;0.54;72.44;100445.28;10176651;29;20040;-65
2021/01/09 11:56:55;;;;;;;11.15;10.15;;;;;;;0.54;72.73;100444.41;10179571;29;20072;-66
2021/01/09 12:01:57;;;;;;;13.48;12.23;;;;;;;0.47;73.13;100438.25;10180123;29;20055;-66
2021/01/09 12:07:00;;;;;;;13.88;12.48;;;;;;;0.14;74.60;100439.47;10184997;29;20146;-66
2021/01/09 12:12:01;;;;;;;14.15;12.93;;;;;;;0.31;74.58;100446.59;10185068;29;20042;-66
2021/01/09 12:17:03;;;;;;;13.07;11.98;;;;;;;0.42;73.92;100447.66;10186760;29;20048;-67
2021/01/09 12:22:05;;;;;;;17.20;14.88;;;;;;;0.11;74.76;100449.72;10185940;29;20044;-70
2021/01/09 12:27:07;;;;;;;16.63;14.93;;;;;;;0.23;74.92;100464.59;10191316;29;20100;-68
2021/01/09 12:32:08;;;;;;;16.80;15.30;;;;;;;0.17;75.13;100456.72;10193566;29;20044;-67
2021/01/09 12:37:10;;;;;;;15.27;13.77;;;;;;;0.32;74.34;100463.88;10194112;29;20044;-67
2021/01/09 12:42:12;;;;;;;15.15;13.77;;;;;;;0.45;73.62;100465.81;10196006;29;20076;-68
2021/01/09 12:47:14;;;;;;;16.17;14.88;;;;;;;0.35;74.37;100463.91;10193688;29;20139;-66
2021/01/09 12:52:16;;;;;;;13.88;12.77;;;;;;;0.55;72.43;100457.34;10192441;29;20045;-68
2021/01/09 12:57:17;;;;;;;13.80;12.68;;;;;;;0.63;72.19;100453.16;10189981;29;20070;-67
2021/01/09 13:02:19;;;;;;;13.32;12.27;;;;;;;0.58;72.36;100460.00;10190196;29;20047;-67
2021/01/09 13:07:21;;;;;;;22.73;19.20;;;;;;;0.74;72.15;100458.50;10189873;29;20131;-68
2021/01/09 13:12:24;;;;;;;12.68;11.57;;;;;;;0.71;71.92;100463.63;10188729;29;20048;-67
2021/01/09 13:17:25;;;;;;;11.80;10.55;;;;;;;0.97;70.53;100466.56;10188703;29;20052;-67
2021/01/09 13:22:28;;;;;;;14.18;12.88;;;;;;;0.85;70.74;100469.00;10189885;29;20037;-68
2021/01/09 13:27:29;;;;;;;10.82;9.93;;;;;;;0.77;71.36;100470.63;10190836;29;20128;-67
2021/01/09 13:32:31;;;;;;;9.80;9.05;;;;;;;1.03;70.24;100471.00;10190368;29;20052;-68
2021/01/09 13:37:33;;;;;;;11.70;10.50;;;;;;;0.89;70.14;100474.25;10189985;29;20422;-68
2021/01/09 13:42:35;;;;;;;9.73;8.95;;;;;;;0.80;70.02;100484.47;10186133;29;20075;-67
2021/01/09 13:47:37;;;;;;;9.95;9.07;;;;;;;0.85;70.14;100493.16;10187510;29;20044;-68
2021/01/09 13:52:39;;;;;;;9.25;8.45;;;;;;;0.99;69.07;100495.97;10190238;29;20040;-68
2021/01/09 13:57:44;;;;;;;10.70;9.80;;;;;;;0.98;69.14;100499.41;10188884;29;20100;-68
2021/01/09 14:02:46;;;;;;;10.25;9.38;;;;;;;0.85;70.18;100500.06;10189863;29;20052;-67
2021/01/09 14:07:47;;;;;;;9.57;8.73;;;;;;;0.79;71.10;100495.66;10190416;29;20139;-68
2021/01/09 14:12:48;;;;;;;10.85;8.77;;;;;;;0.82;70.71;100500.88;10187271;29;20096;-68
2021/01/09 14:17:50;;;;;;;10.35;9.55;;;;;;;0.93;70.33;100501.03;10189753;29;20047;-68
2021/01/09 14:22:52;;;;;;;10.50;9.60;;;;;;;0.74;71.08;100516.28;10190555;29;20059;-67
2021/01/09 14:27:54;;;;;;;10.65;9.77;;;;;;;0.69;71.31;100517.06;10191434;29;20048;-67
2021/01/09 14:32:58;;;;;;;10.73;9.82;;;;;;;0.83;70.82;100520.72;10183634;29;20095;-67
2021/01/09 14:37:59;;;;;;;10.55;9.75;;;;;;;0.79;71.05;100524.13;10201898;23;20068;-64
2021/01/09 14:43:00;;;;;;;10.02;8.93;;;;;;;0.65;71.44;100525.63;10176366;29;20075;-64
2021/01/09 14:48:02;;;;;;;10.50;9.70;;;;;;;0.65;71.04;100523.91;10175881;29;20071;-64
2021/01/09 14:53:04;;;;;;;9.57;8.82;;;;;;;0.74;70.98;100526.63;10176262;29;20115;-65
2021/01/09 14:58:05;;;;;;;9.85;9.07;;;;;;;0.75;71.32;100527.50;10176566;29;20056;-63
2021/01/09 15:03:06;;;;;;;10.10;9.30;;;;;;;0.52;71.75;100523.69;10174661;29;20095;-64
2021/01/09 15:08:07;;;;;;;8.98;8.38;;;;;;;0.69;71.65;100535.19;10174553;29;20079;-64
2021/01/09 15:13:10;;;;;;;9.02;8.23;;;;;;;0.62;71.97;100546.25;10176256;29;20050;-63
2021/01/09 15:18:22;;;;;;;10.13;9.32;;;;;;;0.49;72.41;100547.78;10175634;29;20055;-65
2021/01/09 15:23:23;;;;;;;9.00;8.30;;;;;;;0.68;72.06;100551.56;10158337;29;20078;-65
2021/01/09 15:28:24;;;;;;;11.63;10.73;;;;;;;0.53;72.92;100554.72;10175181;29;20127;-65
2021/01/09 15:33:26;;;;;;;9.77;8.98;;;;;;;0.80;72.09;100562.09;10174789;29;20486;-64
2021/01/09 15:38:27;;;;;;;10.73;9.82;;;;;;;0.52;73.22;100565.06;10174629;29;20092;-65
2021/01/09 15:43:28;;;;;;;10.80;9.90;;;;;;;0.56;73.30;100572.03;10175077;29;20064;-64
2021/01/09 15:48:29;;;;;;;10.93;9.93;;;;;;;0.67;73.47;100580.88;10174162;29;20044;-62
2021/01/09 15:53:32;;;;;;;11.30;10.20;;;;;;;0.58;73.99;100580.72;10174185;29;20051;-65
2021/01/09 15:58:35;;;;;;;11.43;10.35;;;;;;;0.45;74.47;100585.66;10174529;29;20064;-63
2021/01/09 16:03:37;;;;;;;13.27;9.50;;;;;;;0.73;73.86;100587.00;10181177;29;20060;-63
2021/01/09 16:08:39;;;;;;;10.75;9.75;;;;;;;0.54;73.87;100603.06;10182140;29;20405;-64
2021/01/09 16:13:40;;;;;;;10.35;9.27;;;;;;;0.65;74.25;100595.47;10179424;29;20058;-65
2021/01/09 16:18:42;;;;;;;11.38;10.10;;;;;;;0.47;75.01;100598.59;10177270;29;20394;-65
2021/01/09 16:23:43;;;;;;;12.30;11.18;;;;;;;0.59;74.82;100600.56;10177946;29;20396;-66
2021/01/09 16:28:45;;;;;;;11.20;10.20;;;;;;;0.69;74.67;100602.44;10179526;29;20086;-65
2021/01/09 16:33:46;;;;;;;13.75;12.43;;;;;;;0.45;75.16;100606.34;10181866;29;20521;-65
2021/01/09 16:38:47;;;;;;;14.07;12.43;;;;;;;0.52;75.28;100614.22;10179810;29;20423;-64
2021/01/09 16:43:49;;;;;;;14.43;12.32;;;;;;;0.63;74.97;100604.94;10181143;29;20048;-65
2021/01/09 16:48:53;;;;;;;13.65;12.25;;;;;;;0.63;75.04;100605.81;10180638;29;20044;-64
2021/01/09 16:53:58;;;;;;;16.25;14.13;;;;;;;0.63;75.37;100620.47;10180449;29;20040;-64
2021/01/09 16:58:59;;;;;;;14.02;12.73;;;;;;;0.56;75.26;100619.47;10179727;29;20078;-64
2021/01/09 17:04:01;;;;;;;14.40;13.00;;;;;;;0.42;75.88;100623.53;10178646;29;20052;-64
2021/01/09 17:09:02;;;;;;;14.40;13.07;;;;;;;0.59;75.55;100613.50;10180723;29;20135;-66
2021/01/09 17:14:03;;;;;;;14.90;13.50;;;;;;;0.80;74.81;100613.88;10178959;29;20044;-63
2021/01/09 17:19:06;;;;;;;12.63;11.35;;;;;;;0.83;74.06;100613.03;10179644;29;20409;-62
2021/01/09 17:24:10;;;;;;;12.07;11.00;;;;;;;0.73;74.49;100607.69;10178885;29;20048;-65
2021/01/09 17:29:31;;;;;;;12.00;10.88;;;;;;;0.91;73.80;100612.31;10180177;29;20148;-65
2021/01/09 17:34:34;;;;;;;10.63;9.63;;;;;;;0.83;73.83;100613.91;10178724;29;20044;-64
2021/01/09 17:39:37;;;;;;;10.35;9.45;;;;;;;0.80;73.70;100624.22;10178694;29;20048;-65
2021/01/09 17:44:38;;;;;;;13.57;12.35;;;;;;;0.61;74.22;100625.59;10181005;29;20055;-64
2021/01/09 17:49:39;;;;;;;13.65;11.85;;;;;;;0.68;74.11;100631.75;10178857;29;20044;-64
2021/01/09 17:54:41;;;;;;;13.43;12.20;;;;;;;0.69;74.54;100641.25;10176716;29;20048;-65
2021/01/09 17:59:42;;;;;;;12.75;11.45;;;;;;;0.47;75.19;100634.81;10177408;29;20044;-65
2021/01/09 18:04:43;;;;;;;13.85;12.50;;;;;;;0.56;75.65;100637.56;10176698;29;20141;-64
2021/01/09 18:09:44;;;;;;;17.15;14.05;;;;;;;0.54;76.11;100643.59;10178308;29;20151;-65
2021/01/09 18:14:46;;;;;;;15.15;13.57;;;;;;;0.58;75.71;100654.00;10178240;29;20424;-65
2021/01/09 18:19:48;;;;;;;19.38;15.70;;;;;;;0.51;76.37;100654.72;10176381;29;20055;-64
2021/01/09 18:24:50;;;;;;;21.35;17.05;;;;;;;0.56;76.60;100649.63;10175577;29;20048;-65
2021/01/09 18:29:53;;;;;;;40.10;20.25;;;;;;;0.32;77.19;100657.81;10177627;29;20123;-65
2021/01/09 18:35:12;;;;;;;28.50;17.15;;;;;;;0.66;76.70;100655.00;10176189;29;20055;-64
2021/01/09 18:40:15;;;;;;;34.15;18.92;;;;;;;0.33;77.22;100660.41;10176870;29;20048;-64
2021/01/09 18:45:20;;;;;;;39.95;20.52;;;;;;;0.22;78.25;100662.81;10176895;29;20064;-64
2021/01/09 18:50:22;;;;;;;41.72;20.92;;;;;;;0.38;77.84;100671.72;10175678;29;20040;-64
2021/01/09 18:55:43;;;;;;;36.30;19.17;;;;;;;0.60;77.53;100662.66;10178093;29;20067;-65
2021/01/09 19:00:50;;;;;;;34.13;20.42;;;;;;;0.58;77.38;100666.94;10179032;29;20044;-63
2021/01/09 19:05:55;;;;;;;39.92;19.90;;;;;;;0.49;77.56;100659.88;10175837;29;20044;-64
2021/01/09 19:11:20;;;;;;;50.88;23.15;;;;;;;0.30;77.82;100672.41;10175493;29;20071;-65
2021/01/09 19:16:25;;;;;;;43.50;20.70;;;;;;;0.61;77.52;100664.41;10177426;29;20062;-66
2021/01/09 19:21:32;;;;;;;42.80;22.05;;;;;;;0.25;77.73;100665.44;10175735;29;20454;-65
2021/01/09 19:26:36;;;;;;;33.67;19.45;;;;;;;0.35;77.94;100670.78;10175790;29;20159;-65
2021/01/09 19:31:52;;;;;;;39.33;21.13;;;;;;;0.42;77.96;100678.69;10175694;29;20380;-65
2021/01/09 19:36:54;;;;;;;48.00;22.63;;;;;;;0.50;77.57;100682.31;10175848;29;20054;-65
2021/01/09 19:42:08;;;;;;;42.33;21.08;;;;;;;0.44;77.24;100681.31;10174467;29;20052;-65
2021/01/09 19:47:11;;;;;;;44.55;24.38;;;;;;;0.59;76.82;100683.34;10174905;29;20075;-65
2021/01/09 19:52:13;;;;;;;29.90;18.95;;;;;;;0.65;76.78;100680.84;10175247;29;20139;-65
2021/01/09 19:57:15;;;;;;;31.58;20.00;;;;;;;0.67;76.06;100687.81;10177521;29;20503;-65
2021/01/09 20:02:24;;;;;;;40.63;20.88;;;;;;;0.62;76.59;100688.53;10176079;29;20052;-65
2021/01/09 20:07:32;;;;;;;37.83;20.77;;;;;;;0.69;76.83;100693.00;10177730;29;20048;-65
2021/01/09 20:12:34;;;;;;;33.88;18.60;;;;;;;0.71;76.41;100693.94;10177108;29;20044;-66
2021/01/09 20:17:40;;;;;;;36.22;20.08;;;;;;;0.58;76.64;100713.50;10176827;29;20506;-65
2021/01/09 20:22:51;;;;;;;38.60;20.13;;;;;;;0.50;77.40;100713.34;10174887;29;20055;-65
2021/01/09 20:27:55;;;;;;;40.10;21.20;;;;;;;0.58;77.05;100707.47;10175169;29;20059;-66
2021/01/09 20:33:01;;;;;;;44.67;22.23;;;;;;;0.61;77.15;100710.97;10180776;29;20040;-64
2021/01/09 20:38:07;;;;;;;36.95;20.58;;;;;;;0.46;77.57;100729.66;10190753;23;20052;-68
2021/01/09 20:43:11;;;;;;;56.33;23.25;;;;;;;0.48;77.46;100717.59;10178677;29;20048;-70
2021/01/09 20:48:13;;;;;;;57.53;23.52;;;;;;;0.31;77.95;100724.19;10183157;29;20084;-68
2021/01/09 20:53:14;;;;;;;40.20;21.83;;;;;;;0.22;77.96;100732.63;10145055;29;20064;-68
2021/01/09 20:58:15;;;;;;;51.97;22.67;;;;;;;0.34;77.69;100739.75;10144504;29;20049;-68
2021/01/09 21:03:17;;;;;;;40.15;19.67;;;;;;;0.42;77.52;100738.19;10145572;29;20045;-68
2021/01/09 21:08:19;;;;;;;41.80;20.25;;;;;;;0.34;77.52;100744.91;10146009;29;20056;-69
2021/01/09 21:13:20;;;;;;;41.58;21.05;;;;;;;0.35;77.86;100741.47;10145856;29;20041;-69
2021/01/09 21:18:22;;;;;;;50.95;19.98;;;;;;;0.29;78.07;100745.66;10148315;29;20059;-69
2021/01/09 21:23:23;;;;;;;52.30;21.15;;;;;;;0.40;77.68;100751.91;10146734;29;20052;-68
2021/01/09 21:28:24;;;;;;;49.63;20.83;;;;;;;0.37;77.77;100749.28;10146057;29;20447;-67
2021/01/09 21:33:26;;;;;;;37.10;18.67;;;;;;;0.30;77.54;100745.69;10147135;29;20051;-70
2021/01/09 21:38:27;;;;;;;49.28;20.52;;;;;;;0.17;78.12;100754.03;10146920;29;20079;-69
2021/01/09 21:43:28;;;;;;;36.75;18.48;;;;;;;0.33;78.16;100755.22;10146413;29;20439;-68
2021/01/09 21:48:29;;;;;;;41.22;19.33;;;;;;;0.33;77.67;100750.94;10145262;29;20109;-68
2021/01/09 21:53:31;;;;;;;36.10;19.23;;;;;;;0.36;77.19;100755.31;10142957;29;20097;-69
2021/01/09 21:58:32;;;;;;;33.45;17.05;;;;;;;0.31;77.68;100762.06;10142551;29;20044;-67
2021/01/09 22:03:33;;;;;;;37.47;17.92;;;;;;;0.15;77.90;100777.25;10142016;29;20048;-69
2021/01/09 22:08:34;;;;;;;29.65;17.90;;;;;;;0.32;77.23;100776.78;10141706;29;20418;-69
2021/01/09 22:13:36;;;;;;;23.10;16.80;;;;;;;0.13;77.47;100775.47;10141138;29;20129;-69
2021/01/09 22:18:37;;;;;;;19.50;15.23;;;;;;;0.22;77.44;100779.16;10142015;29;20049;-69
2021/01/09 22:23:38;;;;;;;21.05;15.73;;;;;;;0.33;76.74;100771.63;10141264;29;20037;-69
2021/01/09 22:28:39;;;;;;;15.15;13.25;;;;;;;0.24;76.83;100761.09;10139930;29;20052;-70
2021/01/09 22:33:41;;;;;;;23.90;14.48;;;;;;;0.28;76.74;100759.44;10140785;29;20096;-69
2021/01/09 22:38:44;;;;;;;25.83;16.08;;;;;;;0.28;76.64;100777.53;10139107;29;20068;-69
2021/01/09 22:43:46;;;;;;;24.25;16.80;;;;;;;0.32;77.12;100772.47;10140686;29;20562;-69
2021/01/09 22:48:47;;;;;;;24.70;16.17;;;;;;;0.33;77.07;100774.22;10140197;29;20052;-68
2021/01/09 22:53:48;;;;;;;23.90;15.70;;;;;;;0.31;76.74;100772.41;10140704;29;20041;-70
2021/01/09 22:58:50;;;;;;;29.13;16.75;;;;;;;0.12;77.52;100771.16;10139332;29;20519;-69